Time;durP1;ratioP1;P1;durP2;ratioP2;P2;SDS_P1;SDS_P2;PMS_P1;PMS_P2;Temp;Humidity;BMP_temperature;BMP_pressure;BME280_temperature;BME280_humidity;BME280_pressure;Samples;Min_cycle;Max_cycle;Signal;HPM_P1;HPM_P2
2021/07/23 14:17:33;;;;;;;6.28;1.23;;;;;;;;;;5176538;27;20403;-84
2021/07/23 14:19:58;;;;;;;6.45;1.02;;;;;;;;;;5174964;27;20499;-83
2021/07/23 14:22:24;;;;;;;7.68;1.15;;;;;;;;;;5176092;27;20037;-84
2021/07/23 14:24:50;;;;;;;9.95;3.72;;;;;;;;;;5175766;27;20025;-86
2021/07/23 14:27:16;;;;;;;4.00;1.45;;;;;;;;;;5175653;27;20113;-86
2021/07/23 14:29:41;;;;;;;7.05;3.28;;;;;;;;;;5175357;27;20022;-88
2021/07/23 14:32:08;;;;;;;7.45;2.17;;;;;;;;;;5138467;27;20379;-84
2021/07/23 14:34:35;;;;;;;4.47;2.80;;;;;;;;;;5161833;27;20133;-84
2021/07/23 14:37:01;;;;;;;8.05;3.55;;;;;;;;;;5137645;27;20038;-83
2021/07/23 14:39:28;;;;;;;8.27;2.78;;;;;;;;;;5133930;27;20023;-85
2021/07/23 14:41:57;;;;;;;4.82;2.70;;;;;;;;;;5170661;27;20068;-87
2021/07/23 14:44:22;;;;;;;8.02;3.28;;;;;;;;;;5137366;27;20023;-85
2021/07/23 14:46:48;;;;;;;7.68;2.63;;;;;;;;;;5134457;27;20114;-85
2021/07/23 14:49:14;;;;;;;6.15;1.00;;;;;;;;;;5166719;27;20022;-86
2021/07/23 14:51:40;;;;;;;6.15;3.08;;;;;;;;;;5173633;27;20400;-85
2021/07/23 14:54:06;;;;;;;4.07;1.70;;;;;;;;;;5154546;27;20030;-86
2021/07/23 14:56:32;;;;;;;10.05;2.70;;;;;;;;;;5158120;27;20023;-85
2021/07/23 14:58:59;;;;;;;8.68;3.50;;;;;;;;;;5153150;27;20030;-85
2021/07/23 15:01:25;;;;;;;7.65;4.28;;;;;;;;;;5152301;27;20034;-85
2021/07/23 15:03:50;;;;;;;6.03;3.47;;;;;;;;;;5154660;27;20374;-85
2021/07/23 15:06:18;;;;;;;7.88;2.95;;;;;;;;;;5158067;27;20027;-84
2021/07/23 15:08:53;;;;;;;4.78;3.25;;;;;;;;;;5157295;27;20395;-84
2021/07/23 15:11:19;;;;;;;5.85;3.38;;;;;;;;;;5137743;27;20026;-85
2021/07/23 15:13:45;;;;;;;5.97;2.50;;;;;;;;;;5153756;27;20034;-84
2021/07/23 15:16:12;;;;;;;8.02;1.23;;;;;;;;;;5153233;27;20047;-84
2021/07/23 15:18:39;;;;;;;7.07;3.45;;;;;;;;;;5134800;27;20023;-84
2021/07/23 15:21:06;;;;;;;5.60;2.28;;;;;;;;;;5134496;27;20022;-85
2021/07/23 15:23:34;;;;;;;11.20;6.10;;;;;;;;;;5153054;27;20079;-82
2021/07/23 15:25:59;;;;;;;7.30;4.35;;;;;;;;;;5153034;27;20027;-81
2021/07/23 15:28:26;;;;;;;6.30;2.80;;;;;;;;;;5138136;27;20027;-85
2021/07/23 15:30:55;;;;;;;9.30;3.15;;;;;;;;;;5138984;27;20023;-81
2021/07/23 15:33:22;;;;;;;8.20;1.15;;;;;;;;;;5118943;27;20027;-82
2021/07/23 15:35:48;;;;;;;7.15;3.33;;;;;;;;;;5119796;27;20423;-82
2021/07/23 15:38:13;;;;;;;6.50;2.80;;;;;;;;;;5138247;27;20156;-80
2021/07/23 15:40:40;;;;;;;6.93;2.50;;;;;;;;;;5137406;27;20038;-82
2021/07/23 15:43:07;;;;;;;7.40;3.67;;;;;;;;;;5137905;27;20054;-80
2021/07/23 15:45:33;;;;;;;5.32;3.38;;;;;;;;;;5138967;27;20027;-82
2021/07/23 15:48:00;;;;;;;5.05;2.83;;;;;;;;;;5140272;27;20489;-80
2021/07/23 15:50:25;;;;;;;5.20;3.35;;;;;;;;;;5118683;27;20042;-83
2021/07/23 15:52:54;;;;;;;4.60;0.80;;;;;;;;;;5138506;27;20027;-83
2021/07/23 15:55:20;;;;;;;6.20;4.13;;;;;;;;;;5121684;27;20023;-82
2021/07/23 15:57:46;;;;;;;11.40;3.38;;;;;;;;;;5141321;27;20029;-81
2021/07/23 16:00:13;;;;;;;6.05;3.97;;;;;;;;;;5140083;27;20102;-82
2021/07/23 16:02:38;;;;;;;5.03;0.90;;;;;;;;;;5121507;27;20027;-81
2021/07/23 16:05:04;;;;;;;4.25;3.40;;;;;;;;;;5141803;27;20079;-81
2021/07/23 16:07:31;;;;;;;6.63;3.75;;;;;;;;;;5138093;27;20058;-81
2021/07/23 16:09:56;;;;;;;4.93;4.15;;;;;;;;;;5138736;27;20025;-84
2021/07/23 16:12:22;;;;;;;6.45;1.73;;;;;;;;;;5131962;27;20030;-84
2021/07/23 16:14:48;;;;;;;4.35;2.05;;;;;;;;;;5157456;27;20470;-82
2021/07/23 16:17:13;;;;;;;2.67;0.93;;;;;;;;;;5138447;27;20046;-82
2021/07/23 16:19:39;;;;;;;5.00;3.33;;;;;;;;;;5140242;27;20046;-82
2021/07/23 16:22:05;;;;;;;8.90;3.60;;;;;;;;;;5146721;27;20117;-85
2021/07/23 16:24:31;;;;;;;6.63;1.42;;;;;;;;;;5137430;27;20023;-84
2021/07/23 16:26:57;;;;;;;4.38;3.50;;;;;;;;;;5136369;27;20027;-83
2021/07/23 16:29:24;;;;;;;7.30;4.15;;;;;;;;;;5140461;27;20023;-84
2021/07/23 16:31:50;;;;;;;3.85;1.17;;;;;;;;;;5137420;27;20105;-82
2021/07/23 16:34:15;;;;;;;4.50;3.03;;;;;;;;;;5158666;27;20097;-82
2021/07/23 16:36:41;;;;;;;3.83;2.75;;;;;;;;;;5139696;27;20031;-83
2021/07/23 16:39:07;;;;;;;5.95;3.90;;;;;;;;;;5157055;27;20027;-83
2021/07/23 16:41:35;;;;;;;3.53;0.88;;;;;;;;;;5158619;27;20046;-83
2021/07/23 16:44:00;;;;;;;6.22;3.25;;;;;;;;;;5140396;27;20031;-83
2021/07/23 16:46:27;;;;;;;7.72;1.48;;;;;;;;;;5141953;27;20378;-82
2021/07/23 16:48:57;;;;;;;7.13;2.92;;;;;;;;;;5139394;27;20525;-83
2021/07/23 16:51:23;;;;;;;6.72;2.90;;;;;;;;;;5156590;27;20022;-80
2021/07/23 16:53:49;;;;;;;5.88;1.92;;;;;;;;;;5138021;27;20355;-83
2021/07/23 16:56:14;;;;;;;5.30;2.67;;;;;;;;;;5143886;27;20035;-82
2021/07/23 16:58:40;;;;;;;6.28;3.70;;;;;;;;;;5137451;27;20022;-82
2021/07/23 17:01:06;;;;;;;11.60;2.95;;;;;;;;;;5137569;27;20027;-80
2021/07/23 17:03:32;;;;;;;5.03;1.10;;;;;;;;;;5137794;27;20045;-83
2021/07/23 17:05:58;;;;;;;16.33;3.33;;;;;;;;;;5154762;27;20031;-82
2021/07/23 17:08:25;;;;;;;7.82;2.72;;;;;;;;;;5158221;27;20023;-83
2021/07/23 17:10:54;;;;;;;5.57;2.72;;;;;;;;;;5158041;27;20051;-83
2021/07/23 17:13:23;;;;;;;6.35;3.03;;;;;;;;;;5159386;27;20023;-82
2021/07/23 17:15:50;;;;;;;8.40;1.95;;;;;;;;;;5168245;27;20122;-80
2021/07/23 17:18:16;;;;;;;13.32;3.70;;;;;;;;;;5176522;27;20034;-81
2021/07/23 17:20:42;;;;;;;13.68;3.35;;;;;;;;;;5170948;27;20034;-81
2021/07/23 17:23:08;;;;;;;3.72;2.55;;;;;;;;;;5159084;27;20019;-82
2021/07/23 17:25:34;;;;;;;5.00;2.95;;;;;;;;;;5158442;27;20026;-81
2021/07/23 17:27:59;;;;;;;13.13;3.25;;;;;;;;;;5159148;27;20098;-80
2021/07/23 17:30:25;;;;;;;6.95;2.92;;;;;;;;;;5158099;27;20022;-81
2021/07/23 17:32:51;;;;;;;10.13;3.35;;;;;;;;;;5157905;27;20075;-81
2021/07/23 17:35:16;;;;;;;18.70;4.82;;;;;;;;;;5158639;27;20048;-82
2021/07/23 17:37:42;;;;;;;10.40;3.67;;;;;;;;;;5150899;27;20090;-80
2021/07/23 17:40:09;;;;;;;6.13;3.63;;;;;;;;;;5155879;27;20018;-84
2021/07/23 17:42:38;;;;;;;14.63;4.07;;;;;;;;;;5149002;27;20019;-78
2021/07/23 17:45:19;;;;;;;;;;;;;;;;;;5139084;27;20031;-83
2021/07/23 17:47:48;;;;;;;6.13;2.17;;;;;;;;;;5137558;27;19915;-79
2021/07/23 17:50:15;;;;;;;;;;;;;;;;;;5138862;27;20547;-79
2021/07/23 17:52:41;;;;;;;8.13;4.60;;;;;;;;;;5122489;27;19918;-78
2021/07/23 17:55:08;;;;;;;4.97;4.25;;;;;;;;;;5135585;27;20532;-79
2021/07/23 17:57:34;;;;;;;6.03;4.47;;;;;;;;;;5135708;27;20035;-79
2021/07/23 18:00:00;;;;;;;5.78;3.25;;;;;;;;;;5135935;27;20053;-78
2021/07/23 18:02:26;;;;;;;6.15;3.70;;;;;;;;;;5135576;27;20032;-79
2021/07/23 18:04:51;;;;;;;3.15;1.30;;;;;;;;;;5135465;27;20352;-78
2021/07/23 18:07:17;;;;;;;6.38;3.80;;;;;;;;;;5135675;27;20019;-79
2021/07/23 18:09:46;;;;;;;5.70;4.50;;;;;;;;;;5134628;27;20046;-77
2021/07/23 18:12:12;;;;;;;4.63;3.70;;;;;;;;;;5135675;27;20533;-79
2021/07/23 18:14:38;;;;;;;4.60;3.60;;;;;;;;;;5117478;28;20023;-77
2021/07/23 18:17:05;;;;;;;6.40;2.90;;;;;;;;;;5115026;28;20051;-79
2021/07/23 18:19:33;;;;;;;6.18;3.72;;;;;;;;;;5124396;28;20032;-79
2021/07/23 18:21:59;;;;;;;3.75;0.68;;;;;;;;;;5121650;28;20448;-82
2021/07/23 18:24:27;;;;;;;3.70;3.30;;;;;;;;;;5133479;28;20023;-79
2021/07/23 18:26:56;;;;;;;6.50;4.05;;;;;;;;;;5134512;27;20129;-81
2021/07/23 18:29:22;;;;;;;;;;;;;;;;;;5133629;28;20038;-82
2021/07/23 18:31:57;;;;;;;4.78;3.92;;;;;;;;;;5120809;28;19916;-83
2021/07/23 18:34:22;;;;;;;3.60;2.13;;;;;;;;;;5121797;28;20016;-81
2021/07/23 18:36:48;;;;;;;3.58;1.33;;;;;;;;;;5114984;28;20435;-81
2021/07/23 18:39:14;;;;;;;5.43;3.72;;;;;;;;;;5113492;28;20496;-79
2021/07/23 18:41:39;;;;;;;5.13;3.85;;;;;;;;;;5113602;28;20091;-81
2021/07/23 18:44:05;;;;;;;5.40;3.30;;;;;;;;;;5113951;28;20054;-80
2021/07/23 18:46:31;;;;;;;6.28;4.43;;;;;;;;;;5113255;28;20020;-80
2021/07/23 18:48:56;;;;;;;5.75;4.25;;;;;;;;;;5114474;28;20031;-80
2021/07/23 18:51:22;;;;;;;4.82;1.20;;;;;;;;;;5113631;28;20361;-80
2021/07/23 18:53:48;;;;;;;5.45;3.65;;;;;;;;;;5115776;28;20088;-81
2021/07/23 18:56:13;;;;;;;3.65;3.13;;;;;;;;;;5113922;28;20031;-82
2021/07/23 18:58:39;;;;;;;5.07;3.58;;;;;;;;;;5114497;28;20019;-79
2021/07/23 19:01:05;;;;;;;3.55;2.08;;;;;;;;;;5115990;28;20054;-80
2021/07/23 19:03:34;;;;;;;5.53;3.20;;;;;;;;;;5127837;28;20030;-81
2021/07/23 19:06:00;;;;;;;6.32;3.88;;;;;;;;;;5118552;27;20070;-82
2021/07/23 19:08:25;;;;;;;6.20;4.22;;;;;;;;;;5118699;28;20019;-80
2021/07/23 19:10:51;;;;;;;5.43;3.65;;;;;;;;;;5118207;28;20020;-78
2021/07/23 19:13:17;;;;;;;6.45;3.72;;;;;;;;;;5119330;28;20027;-80
2021/07/23 19:15:42;;;;;;;5.82;3.72;;;;;;;;;;5123036;27;20047;-79
2021/07/23 19:18:10;;;;;;;3.83;2.92;;;;;;;;;;5119598;27;20031;-80
2021/07/23 19:20:36;;;;;;;4.43;3.38;;;;;;;;;;5120640;27;20019;-78
2021/07/23 19:23:02;;;;;;;4.68;2.38;;;;;;;;;;5120361;27;20023;-78
2021/07/23 19:25:28;;;;;;;7.15;4.10;;;;;;;;;;5140179;27;20034;-81
2021/07/23 19:27:54;;;;;;;4.65;2.72;;;;;;;;;;5133394;27;20031;-78
2021/07/23 19:30:21;;;;;;;3.80;2.58;;;;;;;;;;5141025;27;20084;-78
2021/07/23 19:32:48;;;;;;;6.50;2.63;;;;;;;;;;5139123;27;20015;-78
2021/07/23 19:35:14;;;;;;;5.28;2.72;;;;;;;;;;5139329;27;20189;-79
2021/07/23 19:37:40;;;;;;;4.95;3.28;;;;;;;;;;5138466;27;20038;-78
2021/07/23 19:40:11;;;;;;;4.85;1.58;;;;;;;;;;5140080;27;20363;-81
2021/07/23 19:42:39;;;;;;;7.03;4.72;;;;;;;;;;5120114;27;20058;-80
2021/07/23 19:45:06;;;;;;;5.78;4.03;;;;;;;;;;5119754;27;20023;-80
2021/07/23 19:47:32;;;;;;;7.40;3.92;;;;;;;;;;5120316;27;20050;-78
2021/07/23 19:49:58;;;;;;;5.60;4.68;;;;;;;;;;5137442;27;20478;-79
2021/07/23 19:52:24;;;;;;;7.47;4.47;;;;;;;;;;5140704;27;20057;-83
2021/07/23 19:54:49;;;;;;;7.30;4.78;;;;;;;;;;5139753;27;20027;-84
2021/07/23 19:57:18;;;;;;;8.23;3.20;;;;;;;;;;5139661;27;20038;-84
2021/07/23 19:59:44;;;;;;;9.00;5.65;;;;;;;;;;5139073;27;20027;-84
2021/07/23 20:02:09;;;;;;;6.53;4.13;;;;;;;;;;5144880;27;20026;-83
2021/07/23 20:04:35;;;;;;;7.35;4.75;;;;;;;;;;5122424;27;20092;-84
2021/07/23 20:07:02;;;;;;;6.30;2.38;;;;;;;;;;5139033;27;20023;-83
2021/07/23 20:09:28;;;;;;;7.72;5.28;;;;;;;;;;5138957;27;20050;-82
2021/07/23 20:12:09;;;;;;;6.40;3.92;;;;;;;;;;5146608;27;20030;-85
2021/07/23 20:15:03;;;;;;;6.05;5.25;;;;;;;;;;5127679;27;20053;-84
2021/07/23 20:17:30;;;;;;;;;;;;;;;;;;5149130;27;20402;-84
2021/07/23 20:20:00;;;;;;;6.45;4.80;;;;;;;;;;5120214;27;19915;-83
2021/07/23 20:22:26;;;;;;;6.53;4.60;;;;;;;;;;5137387;27;20019;-83
2021/07/23 20:24:52;;;;;;;5.65;3.83;;;;;;;;;;5139373;27;20055;-83
2021/07/23 20:27:17;;;;;;;5.70;3.30;;;;;;;;;;5120593;27;20031;-83
2021/07/23 20:29:43;;;;;;;5.70;4.65;;;;;;;;;;5139083;27;20030;-84
2021/07/23 20:32:08;;;;;;;8.30;4.03;;;;;;;;;;5138743;27;20016;-83
2021/07/23 20:34:34;;;;;;;8.05;5.18;;;;;;;;;;5138829;27;20023;-82
2021/07/23 20:37:02;;;;;;;6.65;4.38;;;;;;;;;;5139408;27;20421;-83
2021/07/23 20:39:28;;;;;;;8.68;4.95;;;;;;;;;;5136973;27;20026;-83
2021/07/23 20:41:53;;;;;;;6.30;4.43;;;;;;;;;;5138179;27;20027;-83
2021/07/23 20:44:19;;;;;;;7.60;4.93;;;;;;;;;;5138018;27;20070;-84
2021/07/23 20:46:45;;;;;;;4.05;2.83;;;;;;;;;;5137394;27;20023;-83
2021/07/23 20:49:10;;;;;;;5.55;2.20;;;;;;;;;;5137955;27;20394;-84
2021/07/23 20:51:36;;;;;;;7.55;4.97;;;;;;;;;;5118997;27;20106;-83
2021/07/23 20:54:02;;;;;;;6.55;3.95;;;;;;;;;;5138226;27;20094;-84
2021/07/23 20:56:27;;;;;;;7.82;2.90;;;;;;;;;;5137835;27;20110;-83
2021/07/23 20:58:53;;;;;;;6.38;3.45;;;;;;;;;;5137760;27;20030;-83
2021/07/23 21:01:19;;;;;;;6.25;5.30;;;;;;;;;;5137530;27;20046;-83
2021/07/23 21:03:44;;;;;;;5.38;3.15;;;;;;;;;;5136892;27;20049;-84
2021/07/23 21:06:14;;;;;;;7.05;3.72;;;;;;;;;;5137521;27;20113;-83
2021/07/23 21:08:40;;;;;;;6.75;4.72;;;;;;;;;;5137301;27;20045;-84
2021/07/23 21:11:07;;;;;;;6.38;5.00;;;;;;;;;;5139267;27;20106;-83
2021/07/23 21:13:33;;;;;;;5.07;3.08;;;;;;;;;;5137748;27;20027;-83
2021/07/23 21:15:59;;;;;;;6.18;3.38;;;;;;;;;;5137429;27;20039;-84
2021/07/23 21:18:24;;;;;;;7.25;4.38;;;;;;;;;;5137436;27;20059;-82
2021/07/23 21:20:50;;;;;;;6.57;3.60;;;;;;;;;;5135812;27;20490;-84
2021/07/23 21:23:16;;;;;;;8.82;4.50;;;;;;;;;;5135204;27;20034;-83
2021/07/23 21:25:41;;;;;;;9.38;5.30;;;;;;;;;;5134985;27;20469;-84
2021/07/23 21:28:07;;;;;;;7.47;4.07;;;;;;;;;;5135149;27;20035;-82
2021/07/23 21:30:33;;;;;;;7.18;4.60;;;;;;;;;;5135091;27;20046;-84
2021/07/23 21:33:07;;;;;;;8.77;3.72;;;;;;;;;;5135080;27;20023;-84
2021/07/23 21:35:36;;;;;;;5.65;4.68;;;;;;;;;;5135064;27;20023;-84
2021/07/23 21:38:02;;;;;;;8.93;4.75;;;;;;;;;;5134973;27;20023;-83
2021/07/23 21:40:28;;;;;;;6.47;2.75;;;;;;;;;;5135037;27;20031;-84
2021/07/23 21:42:54;;;;;;;4.15;2.13;;;;;;;;;;5116476;27;20447;-84
2021/07/23 21:45:20;;;;;;;5.90;3.10;;;;;;;;;;5136426;27;20027;-83
2021/07/23 21:47:45;;;;;;;5.05;4.50;;;;;;;;;;5137980;27;20031;-85
2021/07/23 21:50:11;;;;;;;6.95;5.03;;;;;;;;;;5139444;27;20029;-83
2021/07/23 21:52:37;;;;;;;5.60;3.88;;;;;;;;;;5143983;27;20023;-84
2021/07/23 21:55:04;;;;;;;7.13;5.07;;;;;;;;;;5142194;27;20027;-85
2021/07/23 21:57:31;;;;;;;7.60;4.78;;;;;;;;;;5135002;27;20023;-85
2021/07/23 21:59:57;;;;;;;5.38;4.75;;;;;;;;;;5134831;27;20030;-84
2021/07/23 22:02:23;;;;;;;6.40;5.80;;;;;;;;;;5134700;27;20023;-84
2021/07/23 22:04:49;;;;;;;5.97;4.35;;;;;;;;;;5116555;27;20084;-84
2021/07/23 22:07:15;;;;;;;7.35;4.38;;;;;;;;;;5134559;27;20023;-84
2021/07/23 22:09:40;;;;;;;5.93;4.15;;;;;;;;;;5134536;27;20023;-84
2021/07/23 22:12:06;;;;;;;5.35;3.70;;;;;;;;;;5134700;27;20027;-84
2021/07/23 22:14:35;;;;;;;6.75;2.25;;;;;;;;;;5134490;27;20368;-84
2021/07/23 22:17:01;;;;;;;6.57;4.43;;;;;;;;;;5115847;28;20100;-85
2021/07/23 22:19:27;;;;;;;6.88;2.70;;;;;;;;;;5134772;28;20385;-84
2021/07/23 22:21:53;;;;;;;7.70;4.97;;;;;;;;;;5134396;28;20020;-84
2021/07/23 22:24:18;;;;;;;6.72;2.58;;;;;;;;;;5134541;28;20026;-84
2021/07/23 22:26:44;;;;;;;6.15;3.50;;;;;;;;;;5134567;28;20077;-84
2021/07/23 22:29:10;;;;;;;4.43;2.22;;;;;;;;;;5116045;28;20386;-84
2021/07/23 22:31:36;;;;;;;5.50;4.30;;;;;;;;;;5134592;28;20031;-84
2021/07/23 22:34:01;;;;;;;5.95;5.03;;;;;;;;;;5134805;28;20051;-84
2021/07/23 22:36:27;;;;;;;7.32;2.85;;;;;;;;;;5134482;27;20031;-84
2021/07/23 22:38:52;;;;;;;5.07;3.13;;;;;;;;;;5137452;27;20023;-84
2021/07/23 22:41:18;;;;;;;6.55;5.90;;;;;;;;;;5119992;27;20027;-84
2021/07/23 22:43:44;;;;;;;7.03;4.30;;;;;;;;;;5138320;27;20059;-83
2021/07/23 22:46:10;;;;;;;8.50;3.97;;;;;;;;;;5138350;27;20470;-84
2021/07/23 22:48:35;;;;;;;5.65;4.63;;;;;;;;;;5138329;27;20102;-84
2021/07/23 22:51:08;;;;;;;5.10;2.92;;;;;;;;;;5119494;27;20055;-84
2021/07/23 22:53:34;;;;;;;6.10;5.57;;;;;;;;;;5138172;27;20023;-84
2021/07/23 22:56:04;;;;;;;4.75;2.83;;;;;;;;;;5138076;27;20386;-84
2021/07/23 22:58:30;;;;;;;5.90;3.60;;;;;;;;;;5138174;27;20031;-84
2021/07/23 23:00:55;;;;;;;4.75;3.35;;;;;;;;;;5138070;27;20068;-84
2021/07/23 23:03:21;;;;;;;6.35;5.57;;;;;;;;;;5138079;27;20110;-84
2021/07/23 23:05:50;;;;;;;5.95;4.60;;;;;;;;;;5138038;27;20027;-84
2021/07/23 23:08:15;;;;;;;4.28;2.10;;;;;;;;;;5137873;27;20075;-84
2021/07/23 23:10:41;;;;;;;5.20;4.10;;;;;;;;;;5137972;27;20023;-84
2021/07/23 23:13:06;;;;;;;5.28;3.42;;;;;;;;;;5119390;27;20020;-84
2021/07/23 23:15:33;;;;;;;4.60;3.38;;;;;;;;;;5137571;27;20039;-84
2021/07/23 23:17:59;;;;;;;6.78;5.55;;;;;;;;;;5137873;27;20120;-84
2021/07/23 23:20:25;;;;;;;7.50;3.90;;;;;;;;;;5137732;27;20494;-85
2021/07/23 23:22:51;;;;;;;7.38;5.03;;;;;;;;;;5137701;27;20535;-85
2021/07/23 23:25:16;;;;;;;5.10;3.75;;;;;;;;;;5119262;27;20026;-84
2021/07/23 23:27:45;;;;;;;6.97;4.00;;;;;;;;;;5137464;27;20569;-84
2021/07/23 23:30:11;;;;;;;6.57;3.17;;;;;;;;;;5137651;27;20054;-84
2021/07/23 23:32:36;;;;;;;6.50;5.35;;;;;;;;;;5137404;27;20072;-84
2021/07/23 23:35:03;;;;;;;6.68;4.78;;;;;;;;;;5137546;27;20027;-84
2021/07/23 23:37:28;;;;;;;8.07;5.30;;;;;;;;;;5137256;27;20027;-84
2021/07/23 23:39:55;;;;;;;7.80;3.38;;;;;;;;;;5137432;27;20019;-83
2021/07/23 23:42:21;;;;;;;7.70;6.57;;;;;;;;;;5137301;27;20023;-84
2021/07/23 23:44:46;;;;;;;6.07;2.42;;;;;;;;;;5137327;27;20438;-84
2021/07/23 23:47:12;;;;;;;7.03;5.75;;;;;;;;;;5137204;27;20053;-84
2021/07/23 23:49:38;;;;;;;8.15;5.70;;;;;;;;;;5118199;27;20467;-84
2021/07/23 23:52:04;;;;;;;6.22;4.15;;;;;;;;;;5137042;27;20035;-83
2021/07/23 23:54:31;;;;;;;7.40;5.40;;;;;;;;;;5136942;27;20030;-84
2021/07/23 23:56:57;;;;;;;7.38;4.75;;;;;;;;;;5137170;27;20027;-84
2021/07/23 23:59:24;;;;;;;7.88;5.32;;;;;;;;;;5136949;27;20031;-84
